Time;durP1;ratioP1;P1;durP2;ratioP2;P2;SDS_P1;SDS_P2;PMS_P1;PMS_P2;Temp;Humidity;BMP_temperature;BMP_pressure;BME280_temperature;BME280_humidity;BME280_pressure;Samples;Min_cycle;Max_cycle;Signal;HPM_P1;HPM_P2
2021/03/30 00:01:21;;;;;;;11.57;3.63;;;9.60;51.20;;;;;;4996666;28;20356;-73
2021/03/30 00:03:47;;;;;;;8.02;3.65;;;9.50;51.20;;;;;;4996570;28;20348;-73
2021/03/30 00:06:12;;;;;;;10.68;4.15;;;9.50;51.40;;;;;;4996462;28;20376;-73
2021/03/30 00:08:38;;;;;;;7.25;3.30;;;9.50;51.30;;;;;;4996490;28;20034;-74
2021/03/30 00:11:04;;;;;;;8.10;3.60;;;9.50;51.30;;;;;;4996340;28;20026;-74
2021/03/30 00:13:30;;;;;;;12.00;4.47;;;9.50;51.30;;;;;;4996421;28;20105;-74
2021/03/30 00:15:55;;;;;;;8.52;3.70;;;9.40;51.30;;;;;;4996324;28;20018;-74
2021/03/30 00:18:21;;;;;;;7.47;4.28;;;9.30;51.50;;;;;;4996252;28;20113;-74
2021/03/30 00:20:47;;;;;;;5.35;3.40;;;9.30;51.60;;;;;;4996282;28;20034;-74
2021/03/30 00:23:12;;;;;;;7.50;3.58;;;9.30;51.70;;;;;;4996178;28;20036;-73
2021/03/30 00:25:38;;;;;;;6.97;3.17;;;9.20;51.80;;;;;;4994876;28;20053;-73
2021/03/30 00:28:04;;;;;;;5.90;3.17;;;9.20;51.90;;;;;;4995944;28;20026;-73
2021/03/30 00:30:29;;;;;;;8.77;3.33;;;9.20;52.10;;;;;;4996086;28;20038;-73
2021/03/30 00:32:55;;;;;;;9.30;3.50;;;9.20;52.20;;;;;;4996132;28;20022;-73
2021/03/30 00:35:21;;;;;;;6.50;3.95;;;9.20;52.20;;;;;;4995953;28;20026;-74
2021/03/30 00:37:47;;;;;;;8.15;3.20;;;9.20;52.30;;;;;;4995967;28;20027;-73
2021/03/30 00:40:13;;;;;;;7.07;3.20;;;9.10;52.40;;;;;;4995858;28;20030;-75
2021/03/30 00:42:39;;;;;;;7.97;3.50;;;9.10;52.20;;;;;;4995890;28;20388;-75
2021/03/30 00:45:07;;;;;;;7.35;3.20;;;9.20;52.20;;;;;;4995810;28;20387;-75
2021/03/30 00:47:34;;;;;;;7.50;3.22;;;9.20;52.20;;;;;;4995602;28;20026;-76
2021/03/30 00:50:00;;;;;;;7.45;3.47;;;9.30;52.10;;;;;;4995498;28;20040;-75
2021/03/30 00:52:27;;;;;;;6.93;3.35;;;9.20;51.90;;;;;;4995707;28;20045;-75
2021/03/30 00:54:53;;;;;;;9.02;3.70;;;9.30;51.90;;;;;;4995666;28;20080;-75
2021/03/30 00:57:19;;;;;;;6.72;3.78;;;9.30;51.80;;;;;;4995350;28;20470;-75
2021/03/30 00:59:45;;;;;;;10.32;3.83;;;9.20;51.90;;;;;;4995406;28;20018;-75
2021/03/30 01:02:12;;;;;;;9.90;3.92;;;9.10;52.40;;;;;;4995406;28;20038;-74
2021/03/30 01:04:37;;;;;;;6.13;3.00;;;9.00;52.60;;;;;;4995536;28;20046;-76
2021/03/30 01:07:04;;;;;;;9.85;3.67;;;9.00;53.50;;;;;;4997757;28;20475;-75
2021/03/30 01:09:47;;;;;;;7.55;3.67;;;8.90;52.80;;;;;;4996375;28;20040;-75
2021/03/30 01:12:45;;;;;;;6.45;3.53;;;9.00;52.80;;;;;;4993953;28;20435;-75
2021/03/30 01:15:25;;;;;;;7.32;3.53;;;9.00;52.60;;;;;;4995296;28;20030;-75
2021/03/30 01:18:03;;;;;;;7.60;3.53;;;9.00;52.50;;;;;;4995170;28;20026;-74
2021/03/30 01:21:03;;;;;;;6.22;3.80;;;9.00;52.90;;;;;;4995161;28;20101;-74
2021/03/30 01:24:03;;;;;;;8.05;3.30;;;8.80;53.60;;;;;;4995101;28;20033;-75
2021/03/30 01:26:28;;;;;;;7.72;3.40;;;8.60;54.30;;;;;;4995044;28;20395;-74
2021/03/30 01:29:00;;;;;;;10.15;3.75;;;8.60;54.60;;;;;;4994928;28;20035;-75
2021/03/30 01:31:28;;;;;;;9.90;3.45;;;8.50;54.80;;;;;;4977500;28;20026;-75
2021/03/30 01:33:55;;;;;;;9.32;3.42;;;8.50;55.00;;;;;;4994657;28;20534;-74
2021/03/30 01:36:23;;;;;;;5.78;3.13;;;8.40;55.30;;;;;;4994896;28;20058;-74
2021/03/30 01:38:50;;;;;;;9.50;3.45;;;8.40;55.70;;;;;;4994840;28;20076;-74
2021/03/30 01:41:16;;;;;;;10.95;3.08;;;8.30;55.90;;;;;;4994628;28;20030;-74
2021/03/30 01:43:45;;;;;;;5.78;3.00;;;8.20;56.00;;;;;;4994678;28;20026;-74
2021/03/30 01:46:13;;;;;;;7.82;3.33;;;8.20;56.20;;;;;;4994624;28;20027;-74
2021/03/30 01:48:39;;;;;;;5.85;3.42;;;8.30;56.10;;;;;;4994540;28;20030;-74
2021/03/30 01:51:05;;;;;;;4.97;2.97;;;8.30;55.80;;;;;;4994535;28;20495;-74
2021/03/30 01:53:32;;;;;;;7.32;3.10;;;8.40;55.50;;;;;;4994509;28;20109;-74
2021/03/30 01:55:59;;;;;;;8.07;3.40;;;8.50;55.60;;;;;;4977081;28;20504;-73
2021/03/30 01:58:26;;;;;;;10.80;3.28;;;8.50;55.40;;;;;;4994598;28;20106;-73
2021/03/30 02:00:53;;;;;;;10.73;3.75;;;8.40;55.30;;;;;;4994590;28;20031;-73
2021/03/30 02:03:21;;;;;;;9.23;3.78;;;8.50;55.40;;;;;;4994521;28;20033;-73
2021/03/30 02:05:47;;;;;;;9.30;3.60;;;8.40;55.50;;;;;;4994559;28;20038;-73
2021/03/30 02:08:13;;;;;;;6.80;3.63;;;8.40;55.60;;;;;;4994351;28;20038;-73
2021/03/30 02:13:10;;;;;;;5.97;3.58;;;8.20;56.30;;;;;;4994303;28;20030;-73
2021/03/30 02:15:36;;;;;;;5.88;3.45;;;8.10;56.50;;;;;;4993477;28;20022;-73
2021/03/30 02:18:12;;;;;;;6.80;3.85;;;8.10;56.70;;;;;;4994201;28;20069;-73
2021/03/30 02:20:43;;;;;;;7.35;3.80;;;8.10;56.70;;;;;;4994305;28;20045;-73
2021/03/30 02:23:19;;;;;;;7.15;4.03;;;8.10;56.70;;;;;;4994123;28;20022;-73
2021/03/30 02:25:49;;;;;;;5.70;3.10;;;8.10;56.80;;;;;;4993951;28;20084;-73
2021/03/30 02:28:21;;;;;;;7.47;3.47;;;8.10;56.80;;;;;;4993948;28;20030;-73
2021/03/30 02:30:48;;;;;;;9.38;3.63;;;8.10;56.80;;;;;;4994064;28;20030;-72
2021/03/30 02:33:19;;;;;;;6.88;3.38;;;8.10;56.70;;;;;;4993958;28;20058;-72
2021/03/30 02:35:45;;;;;;;8.98;3.38;;;8.10;56.50;;;;;;4994100;28;20085;-72
2021/03/30 02:38:12;;;;;;;7.55;3.60;;;8.10;56.40;;;;;;4993871;28;20030;-72
2021/03/30 02:40:38;;;;;;;11.63;3.88;;;8.20;56.30;;;;;;4994030;28;20034;-73
2021/03/30 02:43:05;;;;;;;10.23;3.60;;;8.10;56.20;;;;;;4997058;28;20037;-73
2021/03/30 02:45:32;;;;;;;8.63;3.85;;;8.20;56.10;;;;;;4995977;28;20026;-73
2021/03/30 02:48:01;;;;;;;6.85;3.80;;;8.20;55.90;;;;;;4995372;28;20490;-74
2021/03/30 02:50:28;;;;;;;7.25;3.63;;;8.20;55.80;;;;;;4995777;28;20089;-73
2021/03/30 02:52:55;;;;;;;7.63;3.47;;;8.20;55.80;;;;;;4995693;28;20549;-73
2021/03/30 02:55:21;;;;;;;6.85;3.95;;;8.20;55.70;;;;;;5000738;28;20027;-73
2021/03/30 02:57:48;;;;;;;7.68;3.40;;;8.20;55.60;;;;;;4999214;28;20034;-73
2021/03/30 03:00:14;;;;;;;6.38;3.65;;;8.30;55.70;;;;;;4995738;28;20053;-73
2021/03/30 03:02:43;;;;;;;7.13;3.28;;;8.30;55.50;;;;;;4996145;28;20030;-73
2021/03/30 03:05:09;;;;;;;9.38;3.90;;;8.20;55.50;;;;;;5004770;28;20019;-73
2021/03/30 03:07:37;;;;;;;7.35;3.60;;;8.20;55.50;;;;;;5011986;28;20057;-74
2021/03/30 03:10:06;;;;;;;9.25;3.95;;;8.20;55.70;;;;;;5003457;28;20031;-73
2021/03/30 03:12:33;;;;;;;8.30;3.28;;;8.10;55.80;;;;;;4984882;28;20034;-73
2021/03/30 03:15:01;;;;;;;6.88;3.40;;;8.10;56.00;;;;;;5003872;28;20026;-73
2021/03/30 03:17:29;;;;;;;6.10;3.25;;;8.20;56.20;;;;;;5001033;28;20022;-74
2021/03/30 03:19:56;;;;;;;8.35;3.55;;;8.20;56.20;;;;;;4996744;28;20018;-73
2021/03/30 03:22:22;;;;;;;7.20;4.03;;;8.20;56.00;;;;;;4997538;28;20026;-73
2021/03/30 03:24:49;;;;;;;7.03;3.45;;;8.10;56.30;;;;;;4997731;28;20043;-74
2021/03/30 03:27:16;;;;;;;6.53;3.55;;;8.10;56.60;;;;;;4998216;28;20023;-74
2021/03/30 03:29:42;;;;;;;6.80;3.17;;;8.10;56.70;;;;;;4999914;28;20082;-74
2021/03/30 03:32:08;;;;;;;5.82;3.35;;;8.00;56.70;;;;;;4999873;28;20030;-74
2021/03/30 03:34:34;;;;;;;9.38;3.65;;;8.00;56.70;;;;;;5000252;28;20058;-74
2021/03/30 03:37:01;;;;;;;7.47;3.22;;;8.10;56.70;;;;;;4998974;28;20069;-74
2021/03/30 03:39:26;;;;;;;8.55;3.40;;;8.10;56.70;;;;;;4999448;28;20105;-73
2021/03/30 03:41:52;;;;;;;9.45;3.22;;;8.10;56.30;;;;;;4999464;28;20085;-72
2021/03/30 03:44:17;;;;;;;7.82;3.42;;;8.10;56.20;;;;;;4998781;28;20026;-73
2021/03/30 03:46:43;;;;;;;7.30;3.95;;;8.10;56.20;;;;;;4998394;28;20018;-73
2021/03/30 03:49:09;;;;;;;10.05;4.10;;;8.10;56.50;;;;;;4998526;28;20038;-73
2021/03/30 03:51:48;;;;;;;7.28;3.85;;;8.10;56.40;;;;;;4998944;28;20026;-74
2021/03/30 03:54:17;;;;;;;7.18;3.40;;;8.10;56.40;;;;;;4998426;28;20034;-73
2021/03/30 03:56:45;;;;;;;10.98;3.90;;;8.00;56.40;;;;;;4999176;28;20399;-73
2021/03/30 03:59:17;;;;;;;7.22;3.53;;;7.90;56.60;;;;;;4998609;28;20023;-73
2021/03/30 04:01:54;;;;;;;7.25;3.97;;;7.90;56.70;;;;;;4999100;28;20472;-74
2021/03/30 04:04:46;;;;;;;8.50;4.30;;;7.90;56.90;;;;;;4998322;28;20073;-74
2021/03/30 04:07:18;;;;;;;7.85;4.07;;;7.90;56.60;;;;;;4998368;28;20027;-73
2021/03/30 04:09:47;;;;;;;7.38;3.42;;;7.90;56.70;;;;;;4998774;28;20042;-74
2021/03/30 04:12:15;;;;;;;7.55;3.70;;;7.80;56.70;;;;;;4997856;28;20018;-74
2021/03/30 04:14:40;;;;;;;6.72;4.03;;;7.80;57.10;;;;;;4998534;28;20502;-73
2021/03/30 04:17:06;;;;;;;7.10;3.60;;;7.80;57.20;;;;;;4997651;28;20062;-73
2021/03/30 04:19:37;;;;;;;6.40;3.50;;;7.70;57.40;;;;;;4998239;28;20376;-74
2021/03/30 04:22:03;;;;;;;8.93;3.40;;;7.70;57.40;;;;;;4997862;28;20105;-74
2021/03/30 04:24:28;;;;;;;7.45;3.63;;;7.80;57.30;;;;;;4997516;28;20508;-74
2021/03/30 04:26:54;;;;;;;8.52;3.92;;;7.80;57.30;;;;;;4997742;28;20071;-73
2021/03/30 04:29:19;;;;;;;8.25;3.83;;;7.80;57.40;;;;;;4996151;28;20101;-73
2021/03/30 04:31:45;;;;;;;11.32;3.60;;;7.70;57.50;;;;;;4998096;28;20037;-73
2021/03/30 04:34:11;;;;;;;6.60;3.88;;;7.60;57.50;;;;;;4997326;28;20030;-74
2021/03/30 04:36:36;;;;;;;10.23;3.90;;;7.60;57.60;;;;;;4997671;28;20018;-74
2021/03/30 04:39:02;;;;;;;6.90;4.80;;;7.60;57.60;;;;;;4996311;28;20386;-73
2021/03/30 04:41:28;;;;;;;11.82;4.80;;;7.60;57.40;;;;;;4997027;28;20020;-72
2021/03/30 04:43:53;;;;;;;9.65;3.97;;;7.60;57.40;;;;;;4997664;28;20105;-74
2021/03/30 04:46:19;;;;;;;12.57;4.25;;;7.60;57.50;;;;;;4997173;28;20081;-74
2021/03/30 04:48:44;;;;;;;10.93;4.30;;;7.60;57.50;;;;;;4997757;28;20466;-74
2021/03/30 04:51:10;;;;;;;9.75;4.32;;;7.60;57.60;;;;;;4997000;28;20026;-74
2021/03/30 04:53:36;;;;;;;11.70;4.63;;;7.60;57.80;;;;;;4997598;28;20026;-73
2021/03/30 04:56:04;;;;;;;10.02;4.20;;;7.60;57.80;;;;;;4996825;28;20483;-74
2021/03/30 04:58:29;;;;;;;7.03;3.97;;;7.50;57.90;;;;;;4996644;28;20126;-74
2021/03/30 05:00:55;;;;;;;8.60;4.18;;;7.50;57.80;;;;;;4997397;28;20057;-74
2021/03/30 05:03:21;;;;;;;8.70;3.85;;;7.50;57.50;;;;;;4996686;28;20050;-73
2021/03/30 05:05:46;;;;;;;9.25;3.88;;;7.50;57.40;;;;;;4996602;28;20033;-74
2021/03/30 05:08:12;;;;;;;9.93;4.28;;;7.50;57.40;;;;;;4996366;28;20038;-74
2021/03/30 05:10:37;;;;;;;8.50;4.20;;;7.50;57.40;;;;;;4996159;28;20026;-75
2021/03/30 05:13:03;;;;;;;9.10;3.85;;;7.50;57.50;;;;;;4996078;28;20447;-75
2021/03/30 05:15:28;;;;;;;7.80;3.70;;;7.50;57.60;;;;;;4996500;28;20054;-74
2021/03/30 05:17:54;;;;;;;8.27;4.13;;;7.50;57.90;;;;;;4996248;28;20026;-78
2021/03/30 05:20:20;;;;;;;9.27;3.95;;;7.50;58.30;;;;;;4996043;28;20022;-80
2021/03/30 05:22:45;;;;;;;9.80;4.63;;;7.60;59.20;;;;;;4996216;28;20078;-74
2021/03/30 05:25:12;;;;;;;10.88;4.00;;;7.90;58.60;;;;;;4994907;28;20119;-73
2021/03/30 05:27:38;;;;;;;11.15;4.20;;;8.00;57.30;;;;;;4995639;28;20019;-73
2021/03/30 05:30:06;;;;;;;11.13;4.00;;;8.20;57.00;;;;;;4994957;28;20038;-75
2021/03/30 05:32:32;;;;;;;7.90;3.97;;;8.20;55.90;;;;;;4995301;28;20128;-74
2021/03/30 05:34:57;;;;;;;9.68;3.78;;;8.50;57.30;;;;;;4994991;28;20475;-74
2021/03/30 05:37:23;;;;;;;10.70;3.50;;;8.80;56.30;;;;;;4994536;28;20472;-74
2021/03/30 05:39:48;;;;;;;9.27;3.88;;;9.10;54.70;;;;;;4994299;28;20393;-74
2021/03/30 05:42:16;;;;;;;8.88;3.72;;;9.40;53.80;;;;;;4994435;28;20468;-74
2021/03/30 05:44:46;;;;;;;9.85;3.63;;;9.50;52.30;;;;;;4994569;28;20490;-72
2021/03/30 05:49:40;;;;;;;9.27;3.95;;;9.50;49.70;;;;;;4994030;28;20048;-72
2021/03/30 05:52:21;;;;;;;8.88;3.63;;;9.20;49.70;;;;;;4994183;28;20026;-74
2021/03/30 05:54:47;;;;;;;7.93;3.85;;;8.90;50.40;;;;;;4994110;28;20094;-72
2021/03/30 05:57:15;;;;;;;13.63;4.38;;;8.70;50.70;;;;;;4994090;28;20049;-74
2021/03/30 05:59:46;;;;;;;10.13;4.05;;;8.70;50.90;;;;;;4994351;28;20066;-73
2021/03/30 06:02:28;;;;;;;7.65;3.67;;;8.60;51.20;;;;;;4994318;28;20031;-74
2021/03/30 06:04:57;;;;;;;9.35;4.05;;;8.50;51.60;;;;;;4994103;28;20392;-74
2021/03/30 06:07:22;;;;;;;11.13;3.85;;;8.50;51.80;;;;;;4994033;28;20045;-74
2021/03/30 06:09:48;;;;;;;12.57;4.00;;;8.50;51.80;;;;;;4993802;28;20042;-73
2021/03/30 06:12:16;;;;;;;9.27;4.15;;;8.60;51.80;;;;;;4993743;28;20031;-74
2021/03/30 06:14:47;;;;;;;13.63;3.80;;;8.60;51.80;;;;;;4994004;28;20026;-74
2021/03/30 06:17:14;;;;;;;13.93;4.70;;;8.60;51.60;;;;;;4994046;28;20448;-74
2021/03/30 06:19:54;;;;;;;14.65;4.20;;;8.60;51.60;;;;;;4993910;28;20022;-74
2021/03/30 06:22:22;;;;;;;9.35;3.97;;;8.80;51.30;;;;;;4993911;28;20021;-74
2021/03/30 06:24:49;;;;;;;12.13;4.47;;;8.90;51.10;;;;;;4993652;28;20191;-73
2021/03/30 06:27:18;;;;;;;12.68;4.70;;;8.90;50.90;;;;;;4994090;28;20570;-74
2021/03/30 06:29:44;;;;;;;14.32;5.07;;;8.90;50.80;;;;;;4993758;28;20042;-74
2021/03/30 06:32:15;;;;;;;9.02;4.47;;;9.00;50.80;;;;;;4993988;28;20022;-74
2021/03/30 06:34:43;;;;;;;12.38;4.55;;;9.20;50.90;;;;;;4993748;28;20067;-74
2021/03/30 06:37:39;;;;;;;11.68;4.18;;;9.30;50.90;;;;;;4993833;28;20057;-73
2021/03/30 06:40:05;;;;;;;;;;;9.40;50.60;;;;;;4993967;28;20093;-74
2021/03/30 06:42:37;;;;;;;14.45;4.43;;;9.40;50.20;;;;;;4993549;28;20004;-74
2021/03/30 06:45:15;;;;;;;10.63;4.97;;;9.50;50.10;;;;;;4993453;28;20375;-74
2021/03/30 06:47:42;;;;;;;7.93;3.90;;;9.50;50.00;;;;;;4993555;28;20387;-74
2021/03/30 06:50:17;;;;;;;12.10;4.32;;;9.70;50.50;;;;;;4993683;28;20030;-74
2021/03/30 06:52:43;;;;;;;12.20;4.20;;;9.80;49.20;;;;;;4993581;28;20101;-73
2021/03/30 06:55:14;;;;;;;13.20;4.75;;;9.80;48.80;;;;;;4993534;28;20054;-74
2021/03/30 06:57:46;;;;;;;11.88;4.50;;;10.00;48.70;;;;;;4993515;28;20042;-74
2021/03/30 07:00:30;;;;;;;10.98;4.88;;;10.20;48.50;;;;;;4993490;28;20113;-73
2021/03/30 07:03:05;;;;;;;10.82;5.03;;;10.30;49.00;;;;;;4993021;28;20026;-73
2021/03/30 07:05:34;;;;;;;18.73;6.70;;;10.40;50.40;;;;;;4993539;28;20034;-74
2021/03/30 07:08:02;;;;;;;13.40;6.45;;;10.50;51.50;;;;;;4993111;28;20022;-74
2021/03/30 07:10:29;;;;;;;12.68;6.10;;;10.60;51.60;;;;;;4993523;28;20030;-74
2021/03/30 07:12:56;;;;;;;11.95;5.10;;;10.80;51.60;;;;;;4993009;28;20065;-75
2021/03/30 07:15:24;;;;;;;16.88;4.95;;;11.00;50.80;;;;;;4993241;28;20085;-74
2021/03/30 07:18:00;;;;;;;9.50;4.78;;;11.10;48.60;;;;;;4993423;28;20026;-74
2021/03/30 07:20:26;;;;;;;10.45;3.80;;;11.30;48.00;;;;;;4993228;28;20165;-72
2021/03/30 07:22:54;;;;;;;10.57;5.15;;;11.40;47.30;;;;;;4993394;28;20018;-72
2021/03/30 07:25:22;;;;;;;10.13;4.63;;;11.50;46.80;;;;;;4994300;28;20046;-74
2021/03/30 07:28:00;;;;;;;13.02;4.22;;;11.70;47.70;;;;;;4994975;28;20471;-74
2021/03/30 07:30:26;;;;;;;8.38;4.07;;;11.80;46.60;;;;;;4994761;28;20026;-75
2021/03/30 07:33:14;;;;;;;8.00;3.75;;;12.00;45.80;;;;;;4997284;28;20490;-75
2021/03/30 07:35:41;;;;;;;9.57;4.03;;;12.20;44.60;;;;;;4994992;28;20066;-73
2021/03/30 07:38:17;;;;;;;5.88;3.20;;;12.40;44.60;;;;;;4995351;28;20471;-76
2021/03/30 07:40:42;;;;;;;8.15;3.35;;;12.60;43.30;;;;;;4993999;28;20018;-74
2021/03/30 07:43:10;;;;;;;9.65;4.28;;;12.70;43.00;;;;;;4993332;28;20459;-72
2021/03/30 07:45:42;;;;;;;11.43;4.13;;;12.90;42.60;;;;;;4993067;28;20094;-73
2021/03/30 07:48:13;;;;;;;10.00;4.35;;;13.00;42.10;;;;;;4992841;28;20483;-75
2021/03/30 07:51:08;;;;;;;9.20;4.13;;;13.10;42.90;;;;;;4991820;28;20062;-73
2021/03/30 07:53:47;;;;;;;9.38;3.80;;;13.20;42.20;;;;;;4992902;28;20026;-73
2021/03/30 07:56:39;;;;;;;7.40;3.55;;;13.40;42.10;;;;;;4993034;28;20074;-73
2021/03/30 07:59:05;;;;;;;9.10;3.63;;;13.60;42.50;;;;;;4992489;28;20023;-73
2021/03/30 08:01:32;;;;;;;10.52;3.70;;;13.70;42.40;;;;;;4992566;28;20049;-73
2021/03/30 08:03:59;;;;;;;10.23;3.97;;;13.90;43.10;;;;;;4992268;28;20050;-73
2021/03/30 08:06:31;;;;;;;5.53;3.20;;;13.90;42.90;;;;;;4992676;28;20030;-73
2021/03/30 08:08:57;;;;;;;6.82;3.70;;;14.00;42.60;;;;;;4992294;28;20026;-73
2021/03/30 08:11:38;;;;;;;9.40;3.60;;;14.10;41.80;;;;;;4992566;28;20026;-73
2021/03/30 08:14:06;;;;;;;7.75;3.72;;;14.30;40.90;;;;;;4993758;28;20360;-72
2021/03/30 08:16:34;;;;;;;7.70;3.22;;;14.30;40.00;;;;;;4996238;28;20038;-73
2021/03/30 08:19:04;;;;;;;6.57;3.30;;;14.40;39.40;;;;;;4996176;28;20030;-72
2021/03/30 08:22:08;;;;;;;7.05;2.90;;;14.50;39.20;;;;;;4995945;28;20046;-72
2021/03/30 08:24:46;;;;;;;9.00;3.28;;;14.70;39.20;;;;;;4978354;28;20050;-73
2021/03/30 08:27:35;;;;;;;10.23;4.05;;;14.90;39.10;;;;;;4994536;28;20026;-74
2021/03/30 08:30:36;;;;;;;11.68;4.68;;;15.00;38.70;;;;;;4995557;28;20038;-72
2021/03/30 08:33:04;;;;;;;9.65;3.72;;;15.10;38.60;;;;;;4995482;28;20065;-72
2021/03/30 08:35:31;;;;;;;8.10;3.10;;;15.20;38.70;;;;;;4995701;28;20041;-73
2021/03/30 08:37:58;;;;;;;9.55;3.20;;;15.30;39.30;;;;;;4995672;28;20070;-73
2021/03/30 08:40:35;;;;;;;4.97;2.75;;;15.50;39.30;;;;;;4995455;28;20209;-73
2021/03/30 08:43:13;;;;;;;11.70;4.50;;;15.60;39.00;;;;;;4995458;28;20026;-73
2021/03/30 08:45:54;;;;;;;8.23;3.42;;;15.80;38.70;;;;;;4995477;28;20018;-73
2021/03/30 08:48:34;;;;;;;10.00;3.55;;;15.80;38.20;;;;;;4995449;28;20468;-74
2021/03/30 08:51:01;;;;;;;9.77;3.33;;;15.90;38.50;;;;;;4995594;28;20065;-73
2021/03/30 08:53:29;;;;;;;12.52;4.15;;;16.00;38.30;;;;;;4995548;28;20038;-73
2021/03/30 08:55:55;;;;;;;7.30;3.10;;;16.00;38.30;;;;;;4995347;28;20038;-74
2021/03/30 08:58:25;;;;;;;11.05;3.00;;;16.20;38.40;;;;;;4977851;28;20056;-73
2021/03/30 09:00:56;;;;;;;6.07;2.42;;;16.30;37.60;;;;;;4995342;28;20034;-73
2021/03/30 09:03:29;;;;;;;9.10;2.97;;;16.50;37.20;;;;;;4995369;28;20022;-73
2021/03/30 09:05:55;;;;;;;8.15;2.53;;;16.80;36.30;;;;;;4995053;28;20025;-73
2021/03/30 09:08:41;;;;;;;6.28;2.40;;;16.90;35.70;;;;;;4994968;28;20030;-73
2021/03/30 09:11:23;;;;;;;12.30;2.63;;;17.00;35.20;;;;;;4995295;28;20115;-74
2021/03/30 09:14:00;;;;;;;8.13;2.40;;;17.20;35.50;;;;;;4995192;28;20467;-73
2021/03/30 09:16:26;;;;;;;8.32;3.00;;;17.40;35.10;;;;;;4995225;28;20069;-74
2021/03/30 09:19:11;;;;;;;11.68;2.55;;;17.50;35.00;;;;;;4995067;28;20026;-73
2021/03/30 09:21:37;;;;;;;9.55;2.78;;;17.70;35.10;;;;;;4994638;28;20026;-74
2021/03/30 09:24:08;;;;;;;8.95;2.83;;;17.90;35.30;;;;;;4993689;28;20038;-74
2021/03/30 09:26:39;;;;;;;7.97;3.15;;;18.20;35.30;;;;;;4994799;28;20050;-74
2021/03/30 09:29:06;;;;;;;7.60;2.95;;;18.30;35.30;;;;;;4994853;28;20041;-73
2021/03/30 09:31:32;;;;;;;7.40;2.63;;;18.40;35.00;;;;;;4994457;28;20105;-73
2021/03/30 09:33:58;;;;;;;15.18;3.65;;;18.60;35.20;;;;;;4994428;28;20463;-73
2021/03/30 09:36:24;;;;;;;6.38;3.55;;;18.80;35.00;;;;;;4994399;28;20461;-75
2021/03/30 09:38:52;;;;;;;5.72;2.80;;;19.00;34.30;;;;;;4994644;28;20061;-73
2021/03/30 09:41:54;;;;;;;6.95;3.25;;;19.20;34.00;;;;;;4975093;28;20023;-73
2021/03/30 09:44:21;;;;;;;8.52;3.17;;;19.40;33.50;;;;;;4880764;29;20043;-72
2021/03/30 09:46:51;;;;;;;8.57;3.42;;;19.50;32.80;;;;;;4927522;29;20067;-73
2021/03/30 09:49:20;;;;;;;7.25;3.05;;;19.60;32.20;;;;;;4938103;28;20046;-72
2021/03/30 09:51:46;;;;;;;4.50;2.03;;;19.80;31.60;;;;;;4938435;29;20085;-73
2021/03/30 09:54:25;;;;;;;5.47;2.22;;;19.90;30.60;;;;;;4938367;29;20503;-73
2021/03/30 09:57:12;;;;;;;6.85;2.40;;;20.10;29.90;;;;;;4938465;29;20283;-72
2021/03/30 09:59:38;;;;;;;4.85;2.05;;;20.30;29.30;;;;;;4938247;29;20042;-72
2021/03/30 10:02:04;;;;;;;7.18;2.13;;;20.50;28.90;;;;;;4937634;29;20035;-72
2021/03/30 10:04:34;;;;;;;8.05;2.33;;;20.80;29.70;;;;;;4954693;28;20106;-73
2021/03/30 10:07:15;;;;;;;3.47;1.95;;;20.90;28.80;;;;;;4954625;28;20015;-74
2021/03/30 10:09:58;;;;;;;8.27;2.20;;;21.00;27.90;;;;;;4971643;28;20039;-73
2021/03/30 10:12:32;;;;;;;8.20;2.20;;;21.10;27.00;;;;;;4956862;28;20484;-72
2021/03/30 10:15:00;;;;;;;6.83;2.67;;;21.20;26.70;;;;;;4956656;28;20031;-72
2021/03/30 10:17:29;;;;;;;6.10;2.58;;;21.30;27.00;;;;;;4973815;28;20062;-72
2021/03/30 10:19:57;;;;;;;8.45;2.88;;;21.10;27.30;;;;;;4974191;28;20022;-71
2021/03/30 10:22:32;;;;;;;6.88;2.30;;;21.20;27.20;;;;;;4974298;28;20034;-74
2021/03/30 10:25:27;;;;;;;4.10;2.40;;;21.50;27.30;;;;;;4985446;28;20529;-72
2021/03/30 10:27:54;;;;;;;4.75;2.15;;;21.80;27.50;;;;;;4993510;28;20053;-72
2021/03/30 10:30:28;;;;;;;7.07;2.58;;;22.00;27.30;;;;;;4993322;28;20034;-72
2021/03/30 10:32:56;;;;;;;5.47;2.30;;;22.30;27.00;;;;;;4993864;28;20391;-74
2021/03/30 10:35:22;;;;;;;4.25;2.22;;;22.40;26.30;;;;;;4993385;28;20109;-72
2021/03/30 10:37:48;;;;;;;4.28;1.90;;;22.70;26.10;;;;;;4975140;28;20502;-73
2021/03/30 10:40:14;;;;;;;6.10;2.20;;;22.80;25.60;;;;;;4975661;28;20041;-74
2021/03/30 10:42:41;;;;;;;4.93;2.10;;;23.00;25.70;;;;;;4975841;28;20026;-71
2021/03/30 10:45:10;;;;;;;2.65;2.13;;;23.20;25.50;;;;;;4975813;28;20061;-72
2021/03/30 10:47:37;;;;;;;3.00;1.60;;;23.50;25.20;;;;;;4993003;28;20120;-73
2021/03/30 10:50:16;;;;;;;4.10;1.88;;;23.60;24.70;;;;;;4992876;28;20050;-72
2021/03/30 10:52:43;;;;;;;4.65;1.73;;;23.80;24.20;;;;;;4988453;28;20036;-75
2021/03/30 10:55:16;;;;;;;4.15;1.80;;;23.80;23.60;;;;;;4974946;28;20026;-73
2021/03/30 10:57:48;;;;;;;3.25;1.88;;;24.00;23.40;;;;;;4992508;28;20032;-72
2021/03/30 11:00:16;;;;;;;2.70;1.73;;;24.20;22.70;;;;;;4992414;28;20023;-73
2021/03/30 11:02:42;;;;;;;10.65;2.47;;;24.30;22.30;;;;;;4992748;28;20057;-73
2021/03/30 11:05:08;;;;;;;3.38;1.88;;;24.30;22.00;;;;;;4992480;28;20042;-73
2021/03/30 11:07:35;;;;;;;4.90;2.05;;;24.30;21.80;;;;;;4992761;28;20026;-73
2021/03/30 11:10:01;;;;;;;5.55;2.30;;;24.40;21.60;;;;;;4992379;28;20118;-73
2021/03/30 11:12:27;;;;;;;6.35;2.15;;;24.50;21.60;;;;;;4975668;28;20026;-73
2021/03/30 11:14:53;;;;;;;5.18;1.92;;;24.60;21.10;;;;;;4975231;28;20038;-72
2021/03/30 11:17:19;;;;;;;3.05;1.70;;;24.60;21.30;;;;;;4992719;28;20105;-72
2021/03/30 11:19:45;;;;;;;5.72;1.70;;;24.70;21.30;;;;;;4975256;28;20494;-73
2021/03/30 11:22:11;;;;;;;4.38;1.88;;;24.70;20.90;;;;;;4975455;28;20042;-73
2021/03/30 11:24:41;;;;;;;2.40;1.75;;;24.70;20.30;;;;;;4993050;28;20046;-73
2021/03/30 11:27:08;;;;;;;3.60;1.60;;;24.80;19.80;;;;;;4975557;28;20448;-73
2021/03/30 11:34:44;;;;;;;2.80;1.27;;;25.30;17.10;;;;;;4993668;28;20033;-75
2021/03/30 11:39:41;;;;;;;3.20;1.08;;;25.20;14.70;;;;;;4993578;28;20574;-73
2021/03/30 11:42:08;;;;;;;5.55;1.60;;;25.30;14.40;;;;;;4993098;28;20050;-74
2021/03/30 11:44:34;;;;;;;3.20;1.48;;;25.60;14.10;;;;;;4994913;28;20030;-74
2021/03/30 11:47:00;;;;;;;2.85;1.27;;;25.60;13.50;;;;;;4993281;28;20494;-73
2021/03/30 11:49:32;;;;;;;2.70;1.50;;;25.40;13.20;;;;;;4998646;28;20038;-73
2021/03/30 11:51:58;;;;;;;3.55;1.58;;;25.60;13.00;;;;;;4980846;28;20428;-73
2021/03/30 11:54:24;;;;;;;4.50;1.63;;;25.90;14.00;;;;;;5001210;28;20026;-74
2021/03/30 11:56:51;;;;;;;5.00;1.88;;;26.10;13.20;;;;;;4982368;28;20092;-72
2021/03/30 11:59:16;;;;;;;4.55;1.60;;;26.10;12.70;;;;;;4999395;28;20026;-73
2021/03/30 12:01:42;;;;;;;4.63;1.63;;;26.30;12.60;;;;;;4998484;28;20053;-74
2021/03/30 12:04:08;;;;;;;2.42;1.48;;;26.10;12.20;;;;;;4998758;28;20042;-73
2021/03/30 12:06:34;;;;;;;1.90;1.30;;;26.40;12.10;;;;;;4981069;28;20022;-72
2021/03/30 12:09:00;;;;;;;2.47;1.23;;;26.60;11.70;;;;;;4998556;28;20053;-73
2021/03/30 12:11:27;;;;;;;5.38;1.27;;;26.70;11.20;;;;;;4997966;28;20022;-73
2021/03/30 12:13:52;;;;;;;2.65;1.20;;;26.80;11.20;;;;;;4997092;28;20026;-72
2021/03/30 12:16:18;;;;;;;3.47;1.63;;;27.00;11.40;;;;;;4997514;28;20077;-73
2021/03/30 12:18:44;;;;;;;4.70;1.40;;;27.10;10.90;;;;;;4999019;28;20027;-72
2021/03/30 12:21:09;;;;;;;2.13;1.05;;;26.80;10.10;;;;;;4979649;28;20026;-73
2021/03/30 12:23:35;;;;;;;3.40;1.27;;;26.70;9.80;;;;;;4998169;28;20050;-73
2021/03/30 12:26:00;;;;;;;3.50;1.13;;;26.70;9.80;;;;;;4996959;28;20042;-73
2021/03/30 12:28:27;;;;;;;4.03;1.80;;;26.80;10.10;;;;;;4996816;28;20479;-73
2021/03/30 12:30:53;;;;;;;6.65;2.78;;;26.70;11.70;;;;;;4979134;28;20606;-73
2021/03/30 12:33:19;;;;;;;6.50;2.20;;;27.00;13.50;;;;;;4979275;28;20084;-73
2021/03/30 12:35:44;;;;;;;5.43;1.88;;;27.20;14.40;;;;;;4996366;28;20423;-73
2021/03/30 12:38:10;;;;;;;4.53;1.85;;;27.50;15.00;;;;;;4996530;28;20033;-73
2021/03/30 12:40:37;;;;;;;6.32;1.80;;;27.50;15.20;;;;;;4996301;28;20078;-73
2021/03/30 12:43:04;;;;;;;4.00;1.88;;;27.50;15.20;;;;;;5003149;28;20018;-73
2021/03/30 12:45:33;;;;;;;6.07;1.90;;;27.70;15.30;;;;;;4981781;28;20037;-73
2021/03/30 12:48:00;;;;;;;3.60;2.00;;;27.90;15.40;;;;;;5009688;28;20022;-73
2021/03/30 12:50:26;;;;;;;2.83;1.70;;;27.90;15.50;;;;;;5015229;28;20105;-73
2021/03/30 12:52:52;;;;;;;7.82;2.90;;;28.20;16.00;;;;;;4997497;28;20057;-74
2021/03/30 12:55:17;;;;;;;5.53;2.00;;;28.30;16.50;;;;;;5015642;28;20026;-73
2021/03/30 12:57:43;;;;;;;5.10;2.00;;;28.20;15.70;;;;;;5015591;28;20032;-73
2021/03/30 13:00:09;;;;;;;5.25;1.65;;;28.40;15.70;;;;;;5014936;28;20033;-73
2021/03/30 13:02:35;;;;;;;6.50;1.77;;;28.60;15.50;;;;;;5015538;28;20157;-73
2021/03/30 13:05:01;;;;;;;5.68;2.95;;;28.10;15.40;;;;;;5015596;28;20062;-74
2021/03/30 13:07:27;;;;;;;5.57;4.22;;;28.20;15.40;;;;;;5015429;28;20026;-75
2021/03/30 13:09:52;;;;;;;5.30;3.40;;;28.40;15.60;;;;;;5014924;28;20044;-74
2021/03/30 13:12:20;;;;;;;5.22;1.95;;;28.80;15.40;;;;;;5014557;28;20113;-75
2021/03/30 13:14:45;;;;;;;6.68;2.10;;;29.00;15.60;;;;;;5014642;28;20079;-74